This is the latest recevied weather packets stored in our database for station/object N2RDT. If no packets are shown the sender has not sent any weather packets the latest 1 day(s).
| Time | Temp. | Humidity | Pressure | Rain* | Wind** | Luminosity | Snow |
|---|---|---|---|---|---|---|---|
| 1836274803 | 22.22° C | 79% | 1017.8 hPa | 0 mm | 0.89 m/s, 92° | 0 W/m² | - |
| 1836274501 | 22.22° C | 79% | 1018 hPa | 0 mm | 1.79 m/s, 106° | 0 W/m² | - |
| 1836274354 | 22.22° C | 79% | 1017.9 hPa | 0 mm | 1.34 m/s, 103° | 0 W/m² | - |
| 1836274199 | 22.78° C | 78% | 1017.9 hPa | 0 mm | 0.89 m/s, 105° | 0 W/m² | - |
| 1836273898 | 22.78° C | 77% | 1017.8 hPa | 0 mm | 0.89 m/s, 98° | 0 W/m² | - |
| 1778036333 | 19.44° C | 64% | 1015.9 hPa | 0 mm | 2.24 m/s, 110° | 0 W/m² | - |
| 1778036030 | 19.44° C | 63% | 1015.9 hPa | 0 mm | 2.24 m/s, 110° | 0 W/m² | - |
| 1778035727 | 19.44° C | 62% | 1015.9 hPa | 0 mm | 3.58 m/s, 111° | 0 W/m² | - |
| 1778035424 | 20° C | 62% | 1015.9 hPa | 0 mm | 1.34 m/s, 98° | 0 W/m² | - |
| 1778035120 | 20° C | 61% | 1015.9 hPa | 0 mm | 2.68 m/s, 86° | 0 W/m² | - |
| 1778034817 | 20° C | 61% | 1016.1 hPa | 0 mm | 2.68 m/s, 84° | 0 W/m² | - |
| 1778034514 | 20° C | 60% | 1016 hPa | 0 mm | 3.13 m/s, 136° | 0 W/m² | - |
| 1778034212 | 20° C | 60% | 1016 hPa | 0 mm | 3.58 m/s, 87° | 0 W/m² | - |
| 1778033910 | 20.56° C | 59% | 1015.8 hPa | 0 mm | 2.24 m/s, 112° | 0 W/m² | - |
| 1778033606 | 20.56° C | 59% | 1015.8 hPa | 0 mm | 4.92 m/s, 92° | 0 W/m² | - |
| 1778033303 | 20.56° C | 59% | 1015.8 hPa | 0 mm | 1.79 m/s, 87° | 0 W/m² | - |
| 1778033001 | 20.56° C | 58% | 1015.7 hPa | 0 mm | 2.24 m/s, 94° | 0 W/m² | - |
| 1778032698 | 20.56° C | 58% | 1015.6 hPa | 0 mm | 3.13 m/s, 83° | 0 W/m² | - |
| 1778032395 | 20.56° C | 57% | 1015.6 hPa | 0 mm | 2.68 m/s, 83° | 0 W/m² | - |
| 1778032092 | 21.11° C | 57% | 1015.5 hPa | 0 mm | 1.34 m/s, 98° | 0 W/m² | - |
| 1778031789 | 21.11° C | 56% | 1015.4 hPa | 0 mm | 4.02 m/s, 92° | 0 W/m² | - |
| 1778031486 | 21.11° C | 56% | 1015.2 hPa | 0 mm | 3.13 m/s, 85° | 0 W/m² | - |
| 1778031183 | 21.67° C | 55% | 1015.3 hPa | 0 mm | 1.34 m/s, 98° | 0 W/m² | - |
| 1778030879 | 21.11° C | 55% | 1015.2 hPa | 0 mm | 4.92 m/s, 102° | 0 W/m² | - |
| 1778030576 | 21.67° C | 55% | 1015.2 hPa | 0 mm | 3.13 m/s, 80° | 0 W/m² | - |
* Rain latest hour (hover to see other rain measurements)
** Current wind speed in m/s (hover to see current wind gust speed)